sensor_id;sensor_type;location;lat;lon;timestamp;P1;durP1;ratioP1;P2;durP2;ratioP2
9280;SDS011;4679;47.966;7.958;2023-02-15T06:57:03;1.20;;;1.10;;
9280;SDS011;4679;47.966;7.958;2023-02-15T06:59:05;1.57;;;1.10;;
9280;SDS011;4679;47.966;7.958;2023-02-15T07:01:07;6.33;;;3.07;;
9280;SDS011;4679;47.966;7.958;2023-02-15T07:03:12;2.23;;;1.07;;
9280;SDS011;4679;47.966;7.958;2023-02-15T07:05:14;1.23;;;1.13;;
9280;SDS011;4679;47.966;7.958;2023-02-15T07:07:16;1.60;;;1.10;;
9280;SDS011;4679;47.966;7.958;2023-02-15T07:09:18;1.47;;;1.33;;
9280;SDS011;4679;47.966;7.958;2023-02-15T07:11:19;1.27;;;1.10;;
9280;SDS011;4679;47.966;7.958;2023-02-15T07:13:40;1.53;;;1.43;;
9280;SDS011;4679;47.966;7.958;2023-02-15T07:15:42;2.90;;;1.30;;
9280;SDS011;4679;47.966;7.958;2023-02-15T07:17:44;1.23;;;1.13;;
9280;SDS011;4679;47.966;7.958;2023-02-15T07:19:46;2.77;;;1.30;;
9280;SDS011;4679;47.966;7.958;2023-02-15T07:21:48;1.30;;;1.20;;
9280;SDS011;4679;47.966;7.958;2023-02-15T07:23:49;1.63;;;1.20;;
9280;SDS011;4679;47.966;7.958;2023-02-15T07:25:55;1.33;;;1.23;;
9280;SDS011;4679;47.966;7.958;2023-02-15T07:27:58;2.17;;;1.40;;
9280;SDS011;4679;47.966;7.958;2023-02-15T07:30:03;2.70;;;1.93;;
9280;SDS011;4679;47.966;7.958;2023-02-15T07:32:06;2.97;;;2.13;;
9280;SDS011;4679;47.966;7.958;2023-02-15T07:34:08;2.60;;;2.17;;
9280;SDS011;4679;47.966;7.958;2023-02-15T07:36:10;2.97;;;2.20;;
9280;SDS011;4679;47.966;7.958;2023-02-15T07:38:12;2.97;;;1.60;;
9280;SDS011;4679;47.966;7.958;2023-02-15T07:40:13;2.60;;;1.60;;
9280;SDS011;4679;47.966;7.958;2023-02-15T07:42:15;1.57;;;1.30;;
9280;SDS011;4679;47.966;7.958;2023-02-15T07:44:17;1.47;;;1.37;;
9280;SDS011;4679;47.966;7.958;2023-02-15T07:46:20;1.30;;;1.00;;
9280;SDS011;4679;47.966;7.958;2023-02-15T07:48:22;2.47;;;1.30;;
9280;SDS011;4679;47.966;7.958;2023-02-15T07:50:24;1.50;;;1.20;;
9280;SDS011;4679;47.966;7.958;2023-02-15T07:52:25;1.53;;;1.30;;
9280;SDS011;4679;47.966;7.958;2023-02-15T07:54:27;1.70;;;1.40;;
9280;SDS011;4679;47.966;7.958;2023-02-15T07:56:29;0.90;;;0.77;;
9280;SDS011;4679;47.966;7.958;2023-02-15T07:58:31;1.73;;;1.20;;
9280;SDS011;4679;47.966;7.958;2023-02-15T08:00:46;1.27;;;1.13;;
9280;SDS011;4679;47.966;7.958;2023-02-15T08:02:58;1.60;;;1.40;;
9280;SDS011;4679;47.966;7.958;2023-02-15T08:05:15;1.20;;;1.00;;
9280;SDS011;4679;47.966;7.958;2023-02-15T08:07:18;1.70;;;1.60;;
9280;SDS011;4679;47.966;7.958;2023-02-15T08:09:20;1.70;;;1.60;;
9280;SDS011;4679;47.966;7.958;2023-02-15T08:11:22;1.93;;;1.00;;
9280;SDS011;4679;47.966;7.958;2023-02-15T08:13:29;1.47;;;1.00;;
9280;SDS011;4679;47.966;7.958;2023-02-15T08:15:30;1.10;;;1.00;;
9280;SDS011;4679;47.966;7.958;2023-02-15T08:17:35;2.10;;;1.43;;
9280;SDS011;4679;47.966;7.958;2023-02-15T08:19:38;1.63;;;1.10;;
9280;SDS011;4679;47.966;7.958;2023-02-15T08:21:40;1.27;;;0.90;;
9280;SDS011;4679;47.966;7.958;2023-02-15T08:23:43;1.17;;;1.07;;
9280;SDS011;4679;47.966;7.958;2023-02-15T08:25:45;1.70;;;1.30;;
9280;SDS011;4679;47.966;7.958;2023-02-15T08:27:47;1.30;;;1.20;;
9280;SDS011;4679;47.966;7.958;2023-02-15T08:29:48;1.20;;;1.10;;
9280;SDS011;4679;47.966;7.958;2023-02-15T08:31:52;1.33;;;1.17;;
9280;SDS011;4679;47.966;7.958;2023-02-15T08:33:55;4.53;;;1.23;;
9280;SDS011;4679;47.966;7.958;2023-02-15T08:36:03;1.63;;;1.10;;
9280;SDS011;4679;47.966;7.958;2023-02-15T08:38:05;2.97;;;1.63;;
9280;SDS011;4679;47.966;7.958;2023-02-15T08:40:07;3.53;;;1.60;;
9280;SDS011;4679;47.966;7.958;2023-02-15T08:42:10;8.83;;;4.27;;
9280;SDS011;4679;47.966;7.958;2023-02-15T08:44:12;12.67;;;6.00;;
9280;SDS011;4679;47.966;7.958;2023-02-15T08:46:15;3.70;;;2.57;;
9280;SDS011;4679;47.966;7.958;2023-02-15T08:48:17;3.97;;;1.87;;
9280;SDS011;4679;47.966;7.958;2023-02-15T08:50:19;5.90;;;2.57;;
9280;SDS011;4679;47.966;7.958;2023-02-15T08:52:22;3.47;;;2.20;;
9280;SDS011;4679;47.966;7.958;2023-02-15T08:54:23;1.70;;;1.40;;
9280;SDS011;4679;47.966;7.958;2023-02-15T08:56:26;2.20;;;1.97;;
9280;SDS011;4679;47.966;7.958;2023-02-15T08:58:29;2.00;;;1.50;;
9280;SDS011;4679;47.966;7.958;2023-02-15T09:00:31;1.77;;;1.67;;
9280;SDS011;4679;47.966;7.958;2023-02-15T09:02:33;2.73;;;2.00;;
9280;SDS011;4679;47.966;7.958;2023-02-15T09:04:36;3.07;;;1.90;;
9280;SDS011;4679;47.966;7.958;2023-02-15T09:06:38;2.13;;;2.00;;
9280;SDS011;4679;47.966;7.958;2023-02-15T09:08:42;3.03;;;2.17;;
9280;SDS011;4679;47.966;7.958;2023-02-15T09:10:44;3.57;;;2.00;;
9280;SDS011;4679;47.966;7.958;2023-02-15T09:12:46;3.30;;;2.10;;
9280;SDS011;4679;47.966;7.958;2023-02-15T09:14:50;1.87;;;1.73;;
9280;SDS011;4679;47.966;7.958;2023-02-15T09:16:52;3.03;;;1.93;;
9280;SDS011;4679;47.966;7.958;2023-02-15T09:18:54;5.00;;;2.07;;
9280;SDS011;4679;47.966;7.958;2023-02-15T09:21:02;1.87;;;1.70;;
9280;SDS011;4679;47.966;7.958;2023-02-15T09:23:05;2.70;;;1.97;;
9280;SDS011;4679;47.966;7.958;2023-02-15T09:25:08;4.07;;;2.10;;
9280;SDS011;4679;47.966;7.958;2023-02-15T09:28:19;4.53;;;2.30;;
9280;SDS011;4679;47.966;7.958;2023-02-15T09:30:21;2.60;;;2.40;;
9280;SDS011;4679;47.966;7.958;2023-02-15T09:32:22;2.23;;;2.00;;
9280;SDS011;4679;47.966;7.958;2023-02-15T09:34:24;2.23;;;1.90;;
9280;SDS011;4679;47.966;7.958;2023-02-15T09:36:26;6.10;;;2.10;;
9280;SDS011;4679;47.966;7.958;2023-02-15T09:38:29;2.23;;;2.03;;
9280;SDS011;4679;47.966;7.958;2023-02-15T09:40:31;3.93;;;2.10;;
9280;SDS011;4679;47.966;7.958;2023-02-15T09:42:43;2.67;;;2.17;;
9280;SDS011;4679;47.966;7.958;2023-02-15T09:44:57;4.10;;;3.00;;
9280;SDS011;4679;47.966;7.958;2023-02-15T09:47:13;3.37;;;2.20;;
9280;SDS011;4679;47.966;7.958;2023-02-15T09:49:31;4.20;;;2.93;;
9280;SDS011;4679;47.966;7.958;2023-02-15T09:51:48;4.43;;;2.80;;
9280;SDS011;4679;47.966;7.958;2023-02-15T09:54:09;3.43;;;2.40;;
9280;SDS011;4679;47.966;7.958;2023-02-15T09:56:23;5.10;;;2.53;;
9280;SDS011;4679;47.966;7.958;2023-02-15T09:58:34;2.87;;;2.10;;
9280;SDS011;4679;47.966;7.958;2023-02-15T10:00:47;4.33;;;2.17;;
9280;SDS011;4679;47.966;7.958;2023-02-15T10:03:00;2.97;;;2.30;;
9280;SDS011;4679;47.966;7.958;2023-02-15T10:05:16;5.13;;;2.77;;
9280;SDS011;4679;47.966;7.958;2023-02-15T10:07:31;2.70;;;2.10;;
9280;SDS011;4679;47.966;7.958;2023-02-15T10:09:51;6.33;;;2.37;;
9280;SDS011;4679;47.966;7.958;2023-02-15T10:12:08;4.33;;;2.60;;
9280;SDS011;4679;47.966;7.958;2023-02-15T10:14:22;4.17;;;2.83;;
9280;SDS011;4679;47.966;7.958;2023-02-15T10:16:40;3.50;;;2.53;;
9280;SDS011;4679;47.966;7.958;2023-02-15T10:18:52;5.60;;;4.17;;
9280;SDS011;4679;47.966;7.958;2023-02-15T10:21:02;4.77;;;3.67;;
9280;SDS011;4679;47.966;7.958;2023-02-15T10:23:15;7.23;;;6.53;;
9280;SDS011;4679;47.966;7.958;2023-02-15T10:25:32;9.10;;;6.90;;
9280;SDS011;4679;47.966;7.958;2023-02-15T10:27:43;10.20;;;8.40;;
9280;SDS011;4679;47.966;7.958;2023-02-15T10:29:49;11.23;;;7.30;;
9280;SDS011;4679;47.966;7.958;2023-02-15T10:32:08;8.07;;;7.00;;
9280;SDS011;4679;47.966;7.958;2023-02-15T10:34:23;9.27;;;6.00;;
9280;SDS011;4679;47.966;7.958;2023-02-15T10:36:41;7.63;;;6.60;;
9280;SDS011;4679;47.966;7.958;2023-02-15T10:38:55;13.13;;;6.97;;
9280;SDS011;4679;47.966;7.958;2023-02-15T10:41:06;8.43;;;7.20;;
9280;SDS011;4679;47.966;7.958;2023-02-15T10:43:26;9.87;;;7.33;;
9280;SDS011;4679;47.966;7.958;2023-02-15T10:45:45;9.87;;;7.57;;
9280;SDS011;4679;47.966;7.958;2023-02-15T10:48:01;11.10;;;6.97;;
9280;SDS011;4679;47.966;7.958;2023-02-15T10:50:24;14.53;;;6.90;;
9280;SDS011;4679;47.966;7.958;2023-02-15T10:52:33;10.03;;;7.03;;
9280;SDS011;4679;47.966;7.958;2023-02-15T10:54:47;9.33;;;7.57;;
9280;SDS011;4679;47.966;7.958;2023-02-15T10:56:58;7.53;;;6.00;;
9280;SDS011;4679;47.966;7.958;2023-02-15T10:59:10;6.43;;;5.43;;
9280;SDS011;4679;47.966;7.958;2023-02-15T11:01:27;7.43;;;5.63;;
9280;SDS011;4679;47.966;7.958;2023-02-15T11:03:39;7.43;;;5.60;;
9280;SDS011;4679;47.966;7.958;2023-02-15T11:05:52;7.10;;;6.40;;
9280;SDS011;4679;47.966;7.958;2023-02-15T11:08:03;7.53;;;6.20;;
9280;SDS011;4679;47.966;7.958;2023-02-15T11:10:24;8.57;;;5.90;;
9280;SDS011;4679;47.966;7.958;2023-02-15T11:12:30;7.73;;;5.60;;
9280;SDS011;4679;47.966;7.958;2023-02-15T11:14:34;9.50;;;6.13;;
9280;SDS011;4679;47.966;7.958;2023-02-15T11:16:41;9.53;;;8.00;;
9280;SDS011;4679;47.966;7.958;2023-02-15T11:18:48;10.73;;;6.27;;
9280;SDS011;4679;47.966;7.958;2023-02-15T11:20:56;8.50;;;6.07;;
9280;SDS011;4679;47.966;7.958;2023-02-15T11:23:02;6.10;;;4.97;;
9280;SDS011;4679;47.966;7.958;2023-02-15T11:25:16;6.70;;;4.97;;
9280;SDS011;4679;47.966;7.958;2023-02-15T11:27:20;8.07;;;5.40;;
9280;SDS011;4679;47.966;7.958;2023-02-15T11:29:25;7.13;;;5.50;;
9280;SDS011;4679;47.966;7.958;2023-02-15T11:31:34;5.80;;;4.93;;
9280;SDS011;4679;47.966;7.958;2023-02-15T11:33:45;5.70;;;4.33;;
9280;SDS011;4679;47.966;7.958;2023-02-15T11:35:53;5.50;;;4.30;;
9280;SDS011;4679;47.966;7.958;2023-02-15T11:38:03;6.00;;;4.30;;
9280;SDS011;4679;47.966;7.958;2023-02-15T11:40:18;5.27;;;4.63;;
9280;SDS011;4679;47.966;7.958;2023-02-15T11:42:24;6.03;;;4.80;;
9280;SDS011;4679;47.966;7.958;2023-02-15T11:44:30;5.60;;;4.47;;
9280;SDS011;4679;47.966;7.958;2023-02-15T11:46:36;6.40;;;4.63;;
9280;SDS011;4679;47.966;7.958;2023-02-15T11:48:38;4.43;;;3.87;;
9280;SDS011;4679;47.966;7.958;2023-02-15T11:50:42;3.60;;;3.17;;
9280;SDS011;4679;47.966;7.958;2023-02-15T11:52:44;5.13;;;3.60;;
9280;SDS011;4679;47.966;7.958;2023-02-15T11:54:47;4.07;;;3.67;;
9280;SDS011;4679;47.966;7.958;2023-02-15T11:56:51;4.17;;;3.77;;
9280;SDS011;4679;47.966;7.958;2023-02-15T11:58:54;4.00;;;3.70;;
9280;SDS011;4679;47.966;7.958;2023-02-15T12:01:00;3.37;;;3.07;;
9280;SDS011;4679;47.966;7.958;2023-02-15T12:03:09;4.47;;;3.70;;
9280;SDS011;4679;47.966;7.958;2023-02-15T12:05:17;4.70;;;3.93;;
9280;SDS011;4679;47.966;7.958;2023-02-15T12:07:24;3.73;;;3.43;;
9280;SDS011;4679;47.966;7.958;2023-02-15T12:09:30;3.77;;;3.43;;
9280;SDS011;4679;47.966;7.958;2023-02-15T12:11:37;3.23;;;2.93;;
9280;SDS011;4679;47.966;7.958;2023-02-15T12:13:53;5.57;;;3.57;;
9280;SDS011;4679;47.966;7.958;2023-02-15T12:15:57;3.80;;;3.50;;
9280;SDS011;4679;47.966;7.958;2023-02-15T12:18:15;4.60;;;3.70;;
9280;SDS011;4679;47.966;7.958;2023-02-15T12:20:23;4.20;;;3.07;;
9280;SDS011;4679;47.966;7.958;2023-02-15T12:22:29;3.80;;;3.40;;
9280;SDS011;4679;47.966;7.958;2023-02-15T12:24:34;4.30;;;3.90;;
9280;SDS011;4679;47.966;7.958;2023-02-15T12:26:38;6.50;;;4.10;;
9280;SDS011;4679;47.966;7.958;2023-02-15T12:28:40;7.83;;;4.70;;
9280;SDS011;4679;47.966;7.958;2023-02-15T12:30:45;6.97;;;4.27;;
9280;SDS011;4679;47.966;7.958;2023-02-15T12:32:48;5.87;;;5.20;;
9280;SDS011;4679;47.966;7.958;2023-02-15T12:34:54;5.70;;;4.93;;
9280;SDS011;4679;47.966;7.958;2023-02-15T12:37:01;10.57;;;6.17;;
9280;SDS011;4679;47.966;7.958;2023-02-15T12:39:18;6.63;;;5.10;;
9280;SDS011;4679;47.966;7.958;2023-02-15T12:41:22;6.27;;;4.83;;
9280;SDS011;4679;47.966;7.958;2023-02-15T12:43:26;6.63;;;5.40;;
9280;SDS011;4679;47.966;7.958;2023-02-15T12:45:29;5.83;;;4.27;;
9280;SDS011;4679;47.966;7.958;2023-02-15T12:47:32;5.63;;;4.67;;
9280;SDS011;4679;47.966;7.958;2023-02-15T12:49:36;6.17;;;5.57;;
9280;SDS011;4679;47.966;7.958;2023-02-15T12:51:45;8.53;;;5.57;;
9280;SDS011;4679;47.966;7.958;2023-02-15T12:53:48;7.77;;;5.37;;
9280;SDS011;4679;47.966;7.958;2023-02-15T12:55:53;5.87;;;5.30;;
9280;SDS011;4679;47.966;7.958;2023-02-15T12:58:06;6.90;;;5.47;;
9280;SDS011;4679;47.966;7.958;2023-02-15T13:00:23;6.33;;;5.43;;
9280;SDS011;4679;47.966;7.958;2023-02-15T13:02:28;8.00;;;5.00;;
9280;SDS011;4679;47.966;7.958;2023-02-15T13:04:34;5.87;;;5.27;;
9280;SDS011;4679;47.966;7.958;2023-02-15T13:06:36;6.03;;;5.43;;
9280;SDS011;4679;47.966;7.958;2023-02-15T13:08:39;7.00;;;5.20;;
9280;SDS011;4679;47.966;7.958;2023-02-15T13:10:53;5.87;;;5.37;;
9280;SDS011;4679;47.966;7.958;2023-02-15T13:12:57;5.23;;;4.60;;
9280;SDS011;4679;47.966;7.958;2023-02-15T13:14:59;5.23;;;4.77;;
9280;SDS011;4679;47.966;7.958;2023-02-15T13:17:02;4.93;;;4.43;;
9280;SDS011;4679;47.966;7.958;2023-02-15T13:19:06;6.50;;;5.67;;
9280;SDS011;4679;47.966;7.958;2023-02-15T13:21:13;7.47;;;4.30;;
9280;SDS011;4679;47.966;7.958;2023-02-15T13:23:22;4.17;;;3.77;;
9280;SDS011;4679;47.966;7.958;2023-02-15T13:25:29;6.33;;;3.80;;
9280;SDS011;4679;47.966;7.958;2023-02-15T13:27:38;4.67;;;4.07;;
9280;SDS011;4679;47.966;7.958;2023-02-15T13:29:43;6.93;;;5.47;;
9280;SDS011;4679;47.966;7.958;2023-02-15T13:31:46;6.57;;;5.27;;
9280;SDS011;4679;47.966;7.958;2023-02-15T13:33:49;6.80;;;5.83;;
9280;SDS011;4679;47.966;7.958;2023-02-15T13:35:56;6.00;;;5.30;;
9280;SDS011;4679;47.966;7.958;2023-02-15T13:38:22;6.53;;;5.90;;
9280;SDS011;4679;47.966;7.958;2023-02-15T13:40:41;7.20;;;6.50;;
9280;SDS011;4679;47.966;7.958;2023-02-15T13:42:50;6.80;;;6.03;;
9280;SDS011;4679;47.966;7.958;2023-02-15T13:45:01;7.30;;;6.17;;
9280;SDS011;4679;47.966;7.958;2023-02-15T13:47:14;6.53;;;5.53;;
9280;SDS011;4679;47.966;7.958;2023-02-15T13:49:27;7.67;;;6.87;;
9280;SDS011;4679;47.966;7.958;2023-02-15T13:51:40;10.07;;;7.83;;
9280;SDS011;4679;47.966;7.958;2023-02-15T13:54:06;8.30;;;7.47;;
9280;SDS011;4679;47.966;7.958;2023-02-15T13:56:27;10.17;;;6.80;;
9280;SDS011;4679;47.966;7.958;2023-02-15T13:58:45;8.90;;;8.00;;
9280;SDS011;4679;47.966;7.958;2023-02-15T14:01:04;10.23;;;8.00;;
9280;SDS011;4679;47.966;7.958;2023-02-15T14:05:48;13.07;;;8.80;;
9280;SDS011;4679;47.966;7.958;2023-02-15T14:08:08;8.77;;;7.87;;
9280;SDS011;4679;47.966;7.958;2023-02-15T14:10:21;9.83;;;8.57;;
9280;SDS011;4679;47.966;7.958;2023-02-15T14:12:34;9.77;;;8.23;;
9280;SDS011;4679;47.966;7.958;2023-02-15T14:14:52;7.97;;;7.17;;
9280;SDS011;4679;47.966;7.958;2023-02-15T14:17:09;9.03;;;8.13;;
9280;SDS011;4679;47.966;7.958;2023-02-15T14:19:20;9.40;;;7.53;;
9280;SDS011;4679;47.966;7.958;2023-02-15T14:21:30;8.90;;;7.33;;
9280;SDS011;4679;47.966;7.958;2023-02-15T14:23:37;9.33;;;7.17;;
9280;SDS011;4679;47.966;7.958;2023-02-15T14:25:47;7.97;;;7.17;;
9280;SDS011;4679;47.966;7.958;2023-02-15T14:27:55;8.17;;;7.47;;
9280;SDS011;4679;47.966;7.958;2023-02-15T14:30:10;8.60;;;7.73;;
9280;SDS011;4679;47.966;7.958;2023-02-15T14:32:18;8.27;;;7.07;;
9280;SDS011;4679;47.966;7.958;2023-02-15T14:34:27;8.97;;;7.70;;
9280;SDS011;4679;47.966;7.958;2023-02-15T14:36:36;8.13;;;6.73;;
9280;SDS011;4679;47.966;7.958;2023-02-15T14:38:48;10.80;;;6.53;;
9280;SDS011;4679;47.966;7.958;2023-02-15T14:41:01;8.37;;;7.43;;
9280;SDS011;4679;47.966;7.958;2023-02-15T14:43:08;8.47;;;7.67;;
9280;SDS011;4679;47.966;7.958;2023-02-15T14:45:19;9.10;;;6.37;;
9280;SDS011;4679;47.966;7.958;2023-02-15T14:47:25;7.93;;;6.40;;
9280;SDS011;4679;47.966;7.958;2023-02-15T14:49:35;6.97;;;6.30;;
9280;SDS011;4679;47.966;7.958;2023-02-15T14:54:06;6.87;;;6.23;;
9280;SDS011;4679;47.966;7.958;2023-02-15T14:56:21;6.53;;;5.93;;
9280;SDS011;4679;47.966;7.958;2023-02-15T14:58:24;7.03;;;6.37;;
9280;SDS011;4679;47.966;7.958;2023-02-15T15:00:32;8.53;;;6.17;;
9280;SDS011;4679;47.966;7.958;2023-02-15T15:02:43;7.77;;;6.23;;
9280;SDS011;4679;47.966;7.958;2023-02-15T15:04:53;7.07;;;6.33;;
9280;SDS011;4679;47.966;7.958;2023-02-15T15:07:09;9.47;;;6.10;;
9280;SDS011;4679;47.966;7.958;2023-02-15T15:09:20;7.43;;;6.13;;
9280;SDS011;4679;47.966;7.958;2023-02-15T15:11:40;6.90;;;5.93;;
9280;SDS011;4679;47.966;7.958;2023-02-15T15:13:52;12.13;;;6.60;;
9280;SDS011;4679;47.966;7.958;2023-02-15T15:15:56;9.20;;;6.43;;
9280;SDS011;4679;47.966;7.958;2023-02-15T15:18:45;7.73;;;6.73;;
9280;SDS011;4679;47.966;7.958;2023-02-15T15:20:49;8.93;;;7.47;;
9280;SDS011;4679;47.966;7.958;2023-02-15T15:22:55;14.33;;;7.43;;
9280;SDS011;4679;47.966;7.958;2023-02-15T15:25:50;8.20;;;6.23;;
9280;SDS011;4679;47.966;7.958;2023-02-15T15:27:53;8.83;;;6.93;;
9280;SDS011;4679;47.966;7.958;2023-02-15T15:29:55;9.67;;;6.87;;
9280;SDS011;4679;47.966;7.958;2023-02-15T15:31:57;11.20;;;9.43;;
9280;SDS011;4679;47.966;7.958;2023-02-15T15:42:11;7.30;;;6.53;;
9280;SDS011;4679;47.966;7.958;2023-02-15T15:44:42;7.03;;;6.43;;
9280;SDS011;4679;47.966;7.958;2023-02-15T15:47:05;9.73;;;7.00;;
9280;SDS011;4679;47.966;7.958;2023-02-15T15:49:23;8.50;;;6.83;;
9280;SDS011;4679;47.966;7.958;2023-02-15T15:51:31;10.17;;;8.00;;
9280;SDS011;4679;47.966;7.958;2023-02-15T15:53:37;11.30;;;8.40;;
9280;SDS011;4679;47.966;7.958;2023-02-15T15:55:42;10.87;;;8.03;;
9280;SDS011;4679;47.966;7.958;2023-02-15T15:57:47;9.20;;;8.00;;
9280;SDS011;4679;47.966;7.958;2023-02-15T15:59:51;10.63;;;8.67;;
9280;SDS011;4679;47.966;7.958;2023-02-15T16:01:54;16.00;;;8.80;;
9280;SDS011;4679;47.966;7.958;2023-02-15T16:03:57;12.20;;;9.17;;
9280;SDS011;4679;47.966;7.958;2023-02-15T16:06:00;11.13;;;8.83;;
9280;SDS011;4679;47.966;7.958;2023-02-15T16:08:03;12.90;;;9.43;;
9280;SDS011;4679;47.966;7.958;2023-02-15T16:10:06;10.97;;;8.37;;
9280;SDS011;4679;47.966;7.958;2023-02-15T16:12:13;10.33;;;8.23;;
9280;SDS011;4679;47.966;7.958;2023-02-15T16:14:25;12.33;;;9.07;;
9280;SDS011;4679;47.966;7.958;2023-02-15T16:16:30;11.23;;;8.03;;
9280;SDS011;4679;47.966;7.958;2023-02-15T16:18:32;8.80;;;7.90;;
9280;SDS011;4679;47.966;7.958;2023-02-15T16:20:38;11.33;;;7.93;;
9280;SDS011;4679;47.966;7.958;2023-02-15T16:22:41;8.13;;;5.10;;
9280;SDS011;4679;47.966;7.958;2023-02-15T16:24:54;6.83;;;6.23;;
9280;SDS011;4679;47.966;7.958;2023-02-15T16:27:14;7.73;;;5.00;;
9280;SDS011;4679;47.966;7.958;2023-02-15T16:29:28;3.73;;;3.33;;
9280;SDS011;4679;47.966;7.958;2023-02-15T16:31:32;6.47;;;3.40;;
9280;SDS011;4679;47.966;7.958;2023-02-15T16:33:35;5.00;;;3.30;;
9280;SDS011;4679;47.966;7.958;2023-02-15T16:35:39;6.30;;;3.93;;
9280;SDS011;4679;47.966;7.958;2023-02-15T16:37:42;5.63;;;4.40;;
9280;SDS011;4679;47.966;7.958;2023-02-15T16:39:45;5.07;;;4.00;;
9280;SDS011;4679;47.966;7.958;2023-02-15T16:41:49;6.97;;;3.63;;
9280;SDS011;4679;47.966;7.958;2023-02-15T16:43:56;5.80;;;4.40;;
9280;SDS011;4679;47.966;7.958;2023-02-15T16:46:02;7.73;;;4.40;;
9280;SDS011;4679;47.966;7.958;2023-02-15T16:48:07;5.17;;;3.47;;
9280;SDS011;4679;47.966;7.958;2023-02-15T16:50:16;5.00;;;3.30;;
9280;SDS011;4679;47.966;7.958;2023-02-15T16:52:20;4.93;;;4.10;;
9280;SDS011;4679;47.966;7.958;2023-02-15T16:54:24;6.60;;;3.63;;
9280;SDS011;4679;47.966;7.958;2023-02-15T16:56:29;6.53;;;3.63;;
9280;SDS011;4679;47.966;7.958;2023-02-15T16:58:36;8.70;;;3.90;;
9280;SDS011;4679;47.966;7.958;2023-02-15T17:00:42;3.90;;;3.50;;
9280;SDS011;4679;47.966;7.958;2023-02-15T17:02:52;7.50;;;3.20;;
9280;SDS011;4679;47.966;7.958;2023-02-15T17:07:18;3.87;;;3.40;;
9280;SDS011;4679;47.966;7.958;2023-02-15T17:09:20;10.33;;;4.43;;
9280;SDS011;4679;47.966;7.958;2023-02-15T17:11:33;4.07;;;3.33;;
9280;SDS011;4679;47.966;7.958;2023-02-15T17:13:37;2.97;;;2.77;;
9280;SDS011;4679;47.966;7.958;2023-02-15T17:15:40;6.00;;;3.40;;
9280;SDS011;4679;47.966;7.958;2023-02-15T17:17:43;5.77;;;3.63;;
9280;SDS011;4679;47.966;7.958;2023-02-15T17:19:46;4.73;;;3.33;;
9280;SDS011;4679;47.966;7.958;2023-02-15T17:21:51;5.20;;;3.33;;
9280;SDS011;4679;47.966;7.958;2023-02-15T17:23:56;4.60;;;4.10;;
9280;SDS011;4679;47.966;7.958;2023-02-15T17:26:00;5.37;;;3.50;;
9280;SDS011;4679;47.966;7.958;2023-02-15T17:28:15;4.83;;;4.20;;
9280;SDS011;4679;47.966;7.958;2023-02-15T17:30:24;10.93;;;6.40;;
9280;SDS011;4679;47.966;7.958;2023-02-15T17:32:30;7.83;;;5.90;;
9280;SDS011;4679;47.966;7.958;2023-02-15T17:34:44;6.57;;;4.67;;
9280;SDS011;4679;47.966;7.958;2023-02-15T17:36:56;4.83;;;3.70;;
9280;SDS011;4679;47.966;7.958;2023-02-15T17:39:00;5.90;;;4.07;;
9280;SDS011;4679;47.966;7.958;2023-02-15T17:41:06;4.93;;;4.20;;
9280;SDS011;4679;47.966;7.958;2023-02-15T17:43:08;9.97;;;4.70;;
9280;SDS011;4679;47.966;7.958;2023-02-15T17:45:10;8.27;;;4.70;;
9280;SDS011;4679;47.966;7.958;2023-02-15T17:47:14;8.93;;;5.93;;
9280;SDS011;4679;47.966;7.958;2023-02-15T17:49:18;12.10;;;6.47;;
9280;SDS011;4679;47.966;7.958;2023-02-15T17:51:26;10.87;;;7.07;;
9280;SDS011;4679;47.966;7.958;2023-02-15T17:53:28;11.83;;;7.43;;
9280;SDS011;4679;47.966;7.958;2023-02-15T17:55:30;9.87;;;7.20;;
9280;SDS011;4679;47.966;7.958;2023-02-15T17:57:40;10.63;;;7.40;;
9280;SDS011;4679;47.966;7.958;2023-02-15T17:59:42;8.23;;;6.27;;
9280;SDS011;4679;47.966;7.958;2023-02-15T18:02:00;9.83;;;6.87;;
9280;SDS011;4679;47.966;7.958;2023-02-15T18:04:21;7.47;;;5.73;;
9280;SDS011;4679;47.966;7.958;2023-02-15T18:06:41;5.07;;;4.53;;
9280;SDS011;4679;47.966;7.958;2023-02-15T18:09:01;6.30;;;4.17;;
9280;SDS011;4679;47.966;7.958;2023-02-15T18:11:20;4.10;;;3.77;;
9280;SDS011;4679;47.966;7.958;2023-02-15T18:13:39;4.47;;;3.27;;
9280;SDS011;4679;47.966;7.958;2023-02-15T18:15:41;4.47;;;3.73;;
9280;SDS011;4679;47.966;7.958;2023-02-15T18:17:44;3.83;;;2.93;;
9280;SDS011;4679;47.966;7.958;2023-02-15T18:19:48;3.47;;;3.13;;
9280;SDS011;4679;47.966;7.958;2023-02-15T18:21:50;5.30;;;3.27;;
9280;SDS011;4679;47.966;7.958;2023-02-15T18:23:55;3.97;;;3.67;;
9280;SDS011;4679;47.966;7.958;2023-02-15T18:25:56;4.33;;;3.17;;
9280;SDS011;4679;47.966;7.958;2023-02-15T18:27:58;3.23;;;2.60;;
9280;SDS011;4679;47.966;7.958;2023-02-15T18:30:00;2.27;;;1.90;;
9280;SDS011;4679;47.966;7.958;2023-02-15T18:32:02;2.33;;;2.00;;
9280;SDS011;4679;47.966;7.958;2023-02-15T18:34:09;3.30;;;3.00;;
9280;SDS011;4679;47.966;7.958;2023-02-15T18:36:25;8.23;;;5.77;;
9280;SDS011;4679;47.966;7.958;2023-02-15T18:38:29;7.10;;;6.27;;
9280;SDS011;4679;47.966;7.958;2023-02-15T18:40:31;9.83;;;4.03;;
9280;SDS011;4679;47.966;7.958;2023-02-15T18:42:33;4.13;;;3.20;;
9280;SDS011;4679;47.966;7.958;2023-02-15T18:44:35;5.33;;;4.73;;
9280;SDS011;4679;47.966;7.958;2023-02-15T18:46:37;4.83;;;3.93;;
9280;SDS011;4679;47.966;7.958;2023-02-15T18:48:38;3.90;;;3.60;;
9280;SDS011;4679;47.966;7.958;2023-02-15T18:50:40;6.57;;;4.60;;
9280;SDS011;4679;47.966;7.958;2023-02-15T18:52:44;4.13;;;3.83;;
9280;SDS011;4679;47.966;7.958;2023-02-15T18:54:47;5.63;;;3.60;;
9280;SDS011;4679;47.966;7.958;2023-02-15T18:56:54;5.77;;;4.23;;
9280;SDS011;4679;47.966;7.958;2023-02-15T18:58:57;4.80;;;3.87;;
9280;SDS011;4679;47.966;7.958;2023-02-15T19:00:59;5.20;;;3.90;;
9280;SDS011;4679;47.966;7.958;2023-02-15T19:03:02;8.37;;;5.00;;
9280;SDS011;4679;47.966;7.958;2023-02-15T19:05:03;5.27;;;3.87;;
9280;SDS011;4679;47.966;7.958;2023-02-15T19:07:07;5.43;;;4.07;;
9280;SDS011;4679;47.966;7.958;2023-02-15T19:09:18;4.43;;;3.97;;
9280;SDS011;4679;47.966;7.958;2023-02-15T19:11:22;4.57;;;4.07;;
9280;SDS011;4679;47.966;7.958;2023-02-15T19:13:24;6.30;;;4.73;;
9280;SDS011;4679;47.966;7.958;2023-02-15T19:15:27;6.47;;;4.37;;
9280;SDS011;4679;47.966;7.958;2023-02-15T19:17:30;5.20;;;4.20;;
9280;SDS011;4679;47.966;7.958;2023-02-15T19:19:32;4.40;;;3.57;;
9280;SDS011;4679;47.966;7.958;2023-02-15T19:21:33;3.47;;;3.10;;
9280;SDS011;4679;47.966;7.958;2023-02-15T19:23:35;5.00;;;3.80;;
9280;SDS011;4679;47.966;7.958;2023-02-15T19:25:38;4.40;;;4.00;;
9280;SDS011;4679;47.966;7.958;2023-02-15T19:27:41;3.90;;;3.13;;
9280;SDS011;4679;47.966;7.958;2023-02-15T19:29:44;6.57;;;3.57;;
9280;SDS011;4679;47.966;7.958;2023-02-15T19:31:46;2.93;;;2.60;;
9280;SDS011;4679;47.966;7.958;2023-02-15T19:33:48;3.10;;;2.80;;
9280;SDS011;4679;47.966;7.958;2023-02-15T19:35:51;5.40;;;3.10;;
9280;SDS011;4679;47.966;7.958;2023-02-15T19:37:56;3.23;;;3.00;;
9280;SDS011;4679;47.966;7.958;2023-02-15T19:39:59;3.80;;;3.30;;
9280;SDS011;4679;47.966;7.958;2023-02-15T19:42:03;3.53;;;3.23;;
9280;SDS011;4679;47.966;7.958;2023-02-15T19:44:06;2.80;;;2.57;;
9280;SDS011;4679;47.966;7.958;2023-02-15T19:46:09;3.60;;;3.30;;
9280;SDS011;4679;47.966;7.958;2023-02-15T19:48:19;3.43;;;3.13;;
9280;SDS011;4679;47.966;7.958;2023-02-15T19:50:21;5.23;;;4.17;;
9280;SDS011;4679;47.966;7.958;2023-02-15T19:52:24;5.97;;;4.90;;
9280;SDS011;4679;47.966;7.958;2023-02-15T19:54:26;6.50;;;5.33;;
9280;SDS011;4679;47.966;7.958;2023-02-15T19:56:30;6.20;;;4.70;;
9280;SDS011;4679;47.966;7.958;2023-02-15T19:58:33;8.43;;;6.00;;
9280;SDS011;4679;47.966;7.958;2023-02-15T20:00:35;9.20;;;6.27;;
9280;SDS011;4679;47.966;7.958;2023-02-15T20:02:37;9.97;;;5.57;;
9280;SDS011;4679;47.966;7.958;2023-02-15T20:04:38;9.10;;;6.93;;
9280;SDS011;4679;47.966;7.958;2023-02-15T20:06:40;7.47;;;5.23;;
9280;SDS011;4679;47.966;7.958;2023-02-15T20:08:42;7.17;;;5.40;;
9280;SDS011;4679;47.966;7.958;2023-02-15T20:10:45;7.53;;;4.67;;
9280;SDS011;4679;47.966;7.958;2023-02-15T20:12:47;12.13;;;6.93;;
9280;SDS011;4679;47.966;7.958;2023-02-15T20:14:50;11.40;;;5.73;;
9280;SDS011;4679;47.966;7.958;2023-02-15T20:16:53;11.50;;;6.00;;
9280;SDS011;4679;47.966;7.958;2023-02-15T20:18:54;7.87;;;5.20;;
9280;SDS011;4679;47.966;7.958;2023-02-15T20:20:56;8.63;;;4.83;;
9280;SDS011;4679;47.966;7.958;2023-02-15T20:22:58;9.70;;;6.30;;